sensor_id;sensor_type;location;lat;lon;timestamp;temperature;humidity
13970;DHT22;7057;49.984;8.404;2023-07-31T00:00:17;18.60;99.90
13970;DHT22;7057;49.984;8.404;2023-07-31T00:02:45;18.60;99.90
13970;DHT22;7057;49.984;8.404;2023-07-31T00:05:12;18.60;99.90
13970;DHT22;7057;49.984;8.404;2023-07-31T00:07:39;18.60;99.90
13970;DHT22;7057;49.984;8.404;2023-07-31T00:10:08;18.70;99.90
13970;DHT22;7057;49.984;8.404;2023-07-31T00:12:36;18.70;99.90
13970;DHT22;7057;49.984;8.404;2023-07-31T00:15:03;18.70;99.90
13970;DHT22;7057;49.984;8.404;2023-07-31T00:17:31;18.70;99.90
13970;DHT22;7057;49.984;8.404;2023-07-31T00:19:58;18.70;99.90
13970;DHT22;7057;49.984;8.404;2023-07-31T00:22:25;18.60;99.90
13970;DHT22;7057;49.984;8.404;2023-07-31T00:24:52;18.70;99.90
13970;DHT22;7057;49.984;8.404;2023-07-31T00:27:21;18.70;99.90
13970;DHT22;7057;49.984;8.404;2023-07-31T00:29:48;18.70;99.90
13970;DHT22;7057;49.984;8.404;2023-07-31T00:32:15;18.70;99.90
13970;DHT22;7057;49.984;8.404;2023-07-31T00:34:42;18.70;99.90
13970;DHT22;7057;49.984;8.404;2023-07-31T00:37:09;18.70;99.90
13970;DHT22;7057;49.984;8.404;2023-07-31T00:39:37;18.70;99.90
13970;DHT22;7057;49.984;8.404;2023-07-31T00:42:04;18.70;99.90
13970;DHT22;7057;49.984;8.404;2023-07-31T00:44:33;18.70;99.90
13970;DHT22;7057;49.984;8.404;2023-07-31T00:47:01;18.70;99.90
13970;DHT22;7057;49.984;8.404;2023-07-31T00:49:28;18.70;99.90
13970;DHT22;7057;49.984;8.404;2023-07-31T00:51:55;18.70;99.90
13970;DHT22;7057;49.984;8.404;2023-07-31T00:54:23;18.70;99.90
13970;DHT22;7057;49.984;8.404;2023-07-31T00:56:50;18.70;99.90
13970;DHT22;7057;49.984;8.404;2023-07-31T00:59:19;18.70;99.90
13970;DHT22;7057;49.984;8.404;2023-07-31T01:01:48;18.70;99.90
13970;DHT22;7057;49.984;8.404;2023-07-31T01:04:16;18.70;99.90
13970;DHT22;7057;49.984;8.404;2023-07-31T01:06:48;18.70;99.90
13970;DHT22;7057;49.984;8.404;2023-07-31T01:09:30;18.70;99.90
13970;DHT22;7057;49.984;8.404;2023-07-31T01:12:02;18.70;99.90
13970;DHT22;7057;49.984;8.404;2023-07-31T01:14:30;18.70;99.90
13970;DHT22;7057;49.984;8.404;2023-07-31T01:16:58;18.70;99.90
13970;DHT22;7057;49.984;8.404;2023-07-31T01:19:26;18.70;99.90
13970;DHT22;7057;49.984;8.404;2023-07-31T01:22:16;18.70;99.90
13970;DHT22;7057;49.984;8.404;2023-07-31T01:24:59;18.60;99.90
13970;DHT22;7057;49.984;8.404;2023-07-31T01:27:36;18.60;99.90
13970;DHT22;7057;49.984;8.404;2023-07-31T01:30:11;18.60;99.90
13970;DHT22;7057;49.984;8.404;2023-07-31T01:32:43;18.60;99.90
13970;DHT22;7057;49.984;8.404;2023-07-31T01:35:10;18.60;99.90
13970;DHT22;7057;49.984;8.404;2023-07-31T01:37:38;18.60;99.90
13970;DHT22;7057;49.984;8.404;2023-07-31T01:40:06;18.60;99.90
13970;DHT22;7057;49.984;8.404;2023-07-31T01:42:34;18.60;99.90
13970;DHT22;7057;49.984;8.404;2023-07-31T01:45:02;18.60;99.90
13970;DHT22;7057;49.984;8.404;2023-07-31T01:47:29;18.60;99.90
13970;DHT22;7057;49.984;8.404;2023-07-31T01:49:56;18.60;99.90
13970;DHT22;7057;49.984;8.404;2023-07-31T01:52:23;18.60;99.90
13970;DHT22;7057;49.984;8.404;2023-07-31T01:54:50;18.60;99.90
13970;DHT22;7057;49.984;8.404;2023-07-31T01:57:17;18.60;99.90
13970;DHT22;7057;49.984;8.404;2023-07-31T01:59:46;18.70;99.90
13970;DHT22;7057;49.984;8.404;2023-07-31T02:02:13;18.70;99.90
13970;DHT22;7057;49.984;8.404;2023-07-31T02:04:40;18.70;99.90
13970;DHT22;7057;49.984;8.404;2023-07-31T02:07:07;18.70;99.90
13970;DHT22;7057;49.984;8.404;2023-07-31T02:09:35;18.70;99.90
13970;DHT22;7057;49.984;8.404;2023-07-31T02:12:02;18.70;99.90
13970;DHT22;7057;49.984;8.404;2023-07-31T02:14:29;18.80;99.90
13970;DHT22;7057;49.984;8.404;2023-07-31T02:16:57;18.80;99.90
13970;DHT22;7057;49.984;8.404;2023-07-31T02:19:25;18.80;99.90
13970;DHT22;7057;49.984;8.404;2023-07-31T02:21:52;18.80;99.90
13970;DHT22;7057;49.984;8.404;2023-07-31T02:24:19;18.80;99.90
13970;DHT22;7057;49.984;8.404;2023-07-31T02:26:46;18.80;99.90
13970;DHT22;7057;49.984;8.404;2023-07-31T02:29:13;18.80;99.90
13970;DHT22;7057;49.984;8.404;2023-07-31T02:31:40;18.80;99.90
13970;DHT22;7057;49.984;8.404;2023-07-31T02:34:09;18.80;99.90
13970;DHT22;7057;49.984;8.404;2023-07-31T02:36:36;18.80;99.90
13970;DHT22;7057;49.984;8.404;2023-07-31T02:39:03;18.80;99.90
13970;DHT22;7057;49.984;8.404;2023-07-31T02:41:30;18.70;99.90
13970;DHT22;7057;49.984;8.404;2023-07-31T02:43:57;18.70;99.90
13970;DHT22;7057;49.984;8.404;2023-07-31T02:46:25;18.70;99.90
13970;DHT22;7057;49.984;8.404;2023-07-31T02:48:52;18.70;99.90
13970;DHT22;7057;49.984;8.404;2023-07-31T02:51:20;18.70;99.90
13970;DHT22;7057;49.984;8.404;2023-07-31T02:53:48;18.60;99.90
13970;DHT22;7057;49.984;8.404;2023-07-31T02:56:15;18.60;99.90
13970;DHT22;7057;49.984;8.404;2023-07-31T02:58:42;18.60;99.90
13970;DHT22;7057;49.984;8.404;2023-07-31T03:01:09;18.60;99.90
13970;DHT22;7057;49.984;8.404;2023-07-31T03:03:36;18.60;99.90
13970;DHT22;7057;49.984;8.404;2023-07-31T03:06:04;18.60;99.90
13970;DHT22;7057;49.984;8.404;2023-07-31T03:08:32;18.70;99.90
13970;DHT22;7057;49.984;8.404;2023-07-31T03:10:59;18.60;99.90
13970;DHT22;7057;49.984;8.404;2023-07-31T03:13:26;18.60;99.90
13970;DHT22;7057;49.984;8.404;2023-07-31T03:15:53;18.50;99.90
13970;DHT22;7057;49.984;8.404;2023-07-31T03:18:21;18.60;99.90
13970;DHT22;7057;49.984;8.404;2023-07-31T03:20:48;18.60;99.90
13970;DHT22;7057;49.984;8.404;2023-07-31T03:23:15;18.60;99.90
13970;DHT22;7057;49.984;8.404;2023-07-31T03:25:55;18.60;99.90
13970;DHT22;7057;49.984;8.404;2023-07-31T03:28:23;18.50;99.90
13970;DHT22;7057;49.984;8.404;2023-07-31T03:30:51;18.50;99.90
13970;DHT22;7057;49.984;8.404;2023-07-31T03:33:18;18.50;99.90
13970;DHT22;7057;49.984;8.404;2023-07-31T03:35:45;18.50;99.90
13970;DHT22;7057;49.984;8.404;2023-07-31T03:38:12;18.50;99.90
13970;DHT22;7057;49.984;8.404;2023-07-31T03:40:40;18.50;99.90
13970;DHT22;7057;49.984;8.404;2023-07-31T03:43:08;18.50;99.90
13970;DHT22;7057;49.984;8.404;2023-07-31T03:45:35;18.50;99.90
13970;DHT22;7057;49.984;8.404;2023-07-31T03:48:03;18.50;99.90
13970;DHT22;7057;49.984;8.404;2023-07-31T03:50:30;18.50;99.90
13970;DHT22;7057;49.984;8.404;2023-07-31T03:52:58;18.50;99.90
13970;DHT22;7057;49.984;8.404;2023-07-31T03:55:25;18.50;99.90
13970;DHT22;7057;49.984;8.404;2023-07-31T03:57:52;18.50;99.90
13970;DHT22;7057;49.984;8.404;2023-07-31T04:00:20;18.50;99.90
13970;DHT22;7057;49.984;8.404;2023-07-31T04:02:48;18.40;99.90
13970;DHT22;7057;49.984;8.404;2023-07-31T04:05:15;18.40;99.90
13970;DHT22;7057;49.984;8.404;2023-07-31T04:07:43;18.40;99.90
13970;DHT22;7057;49.984;8.404;2023-07-31T04:10:10;18.40;99.90
13970;DHT22;7057;49.984;8.404;2023-07-31T04:12:37;18.40;99.90
13970;DHT22;7057;49.984;8.404;2023-07-31T04:15:05;18.40;99.90
13970;DHT22;7057;49.984;8.404;2023-07-31T04:17:34;18.40;99.90
13970;DHT22;7057;49.984;8.404;2023-07-31T04:20:01;18.40;99.90
13970;DHT22;7057;49.984;8.404;2023-07-31T04:22:28;18.40;99.90
13970;DHT22;7057;49.984;8.404;2023-07-31T04:24:55;18.40;99.90
13970;DHT22;7057;49.984;8.404;2023-07-31T04:27:22;18.40;99.90
13970;DHT22;7057;49.984;8.404;2023-07-31T04:29:49;18.40;99.90
13970;DHT22;7057;49.984;8.404;2023-07-31T04:32:17;18.40;99.90
13970;DHT22;7057;49.984;8.404;2023-07-31T04:34:46;18.40;99.90
13970;DHT22;7057;49.984;8.404;2023-07-31T04:37:13;18.40;99.90
13970;DHT22;7057;49.984;8.404;2023-07-31T04:39:41;18.40;99.90
13970;DHT22;7057;49.984;8.404;2023-07-31T04:42:08;18.40;99.90
13970;DHT22;7057;49.984;8.404;2023-07-31T04:44:35;18.40;99.90
13970;DHT22;7057;49.984;8.404;2023-07-31T04:47:03;18.40;99.90
13970;DHT22;7057;49.984;8.404;2023-07-31T04:49:31;18.40;99.90
13970;DHT22;7057;49.984;8.404;2023-07-31T04:51:59;18.40;99.90
13970;DHT22;7057;49.984;8.404;2023-07-31T04:54:26;18.50;99.90
13970;DHT22;7057;49.984;8.404;2023-07-31T04:56:53;18.50;99.90
13970;DHT22;7057;49.984;8.404;2023-07-31T04:59:21;18.60;99.90
13970;DHT22;7057;49.984;8.404;2023-07-31T05:01:48;18.60;99.90
13970;DHT22;7057;49.984;8.404;2023-07-31T05:04:15;18.60;99.90
13970;DHT22;7057;49.984;8.404;2023-07-31T05:06:43;18.70;99.90
13970;DHT22;7057;49.984;8.404;2023-07-31T05:09:12;18.70;99.90
13970;DHT22;7057;49.984;8.404;2023-07-31T05:11:39;18.60;99.90
13970;DHT22;7057;49.984;8.404;2023-07-31T05:14:08;18.70;99.90
13970;DHT22;7057;49.984;8.404;2023-07-31T05:16:36;18.70;99.90
13970;DHT22;7057;49.984;8.404;2023-07-31T05:19:03;18.70;99.90
13970;DHT22;7057;49.984;8.404;2023-07-31T05:21:30;18.80;99.90
13970;DHT22;7057;49.984;8.404;2023-07-31T05:23:57;18.80;99.90
13970;DHT22;7057;49.984;8.404;2023-07-31T05:26:26;18.70;99.90
13970;DHT22;7057;49.984;8.404;2023-07-31T05:28:53;18.70;99.90
13970;DHT22;7057;49.984;8.404;2023-07-31T05:31:20;18.80;99.90
13970;DHT22;7057;49.984;8.404;2023-07-31T05:33:48;18.80;99.90
13970;DHT22;7057;49.984;8.404;2023-07-31T05:36:16;18.80;99.90
13970;DHT22;7057;49.984;8.404;2023-07-31T05:38:43;18.80;99.90
13970;DHT22;7057;49.984;8.404;2023-07-31T05:41:11;18.80;99.90
13970;DHT22;7057;49.984;8.404;2023-07-31T05:43:39;18.80;99.90
13970;DHT22;7057;49.984;8.404;2023-07-31T05:46:07;18.80;99.90
13970;DHT22;7057;49.984;8.404;2023-07-31T05:48:35;18.90;99.90
13970;DHT22;7057;49.984;8.404;2023-07-31T05:51:02;18.80;99.90
13970;DHT22;7057;49.984;8.404;2023-07-31T05:53:29;18.80;99.90
13970;DHT22;7057;49.984;8.404;2023-07-31T05:55:56;18.90;99.90
13970;DHT22;7057;49.984;8.404;2023-07-31T05:58:23;18.90;99.90
13970;DHT22;7057;49.984;8.404;2023-07-31T06:00:52;19.00;99.90
13970;DHT22;7057;49.984;8.404;2023-07-31T06:03:19;19.10;99.90
13970;DHT22;7057;49.984;8.404;2023-07-31T06:05:46;19.20;99.90
13970;DHT22;7057;49.984;8.404;2023-07-31T06:08:13;19.30;99.90
13970;DHT22;7057;49.984;8.404;2023-07-31T06:10:41;19.40;99.90
13970;DHT22;7057;49.984;8.404;2023-07-31T06:13:08;19.50;99.90
13970;DHT22;7057;49.984;8.404;2023-07-31T06:15:35;19.60;99.90
13970;DHT22;7057;49.984;8.404;2023-07-31T06:18:03;19.70;99.90
13970;DHT22;7057;49.984;8.404;2023-07-31T06:20:33;19.90;99.90
13970;DHT22;7057;49.984;8.404;2023-07-31T06:23:00;20.00;99.90
13970;DHT22;7057;49.984;8.404;2023-07-31T06:25:28;20.10;99.90
13970;DHT22;7057;49.984;8.404;2023-07-31T06:27:55;20.30;99.90
13970;DHT22;7057;49.984;8.404;2023-07-31T06:30:22;20.50;99.90
13970;DHT22;7057;49.984;8.404;2023-07-31T06:32:49;20.60;99.90
13970;DHT22;7057;49.984;8.404;2023-07-31T06:35:18;20.60;99.90
13970;DHT22;7057;49.984;8.404;2023-07-31T06:37:45;20.70;99.90
13970;DHT22;7057;49.984;8.404;2023-07-31T06:40:12;20.70;99.90
13970;DHT22;7057;49.984;8.404;2023-07-31T06:42:40;20.70;99.90
13970;DHT22;7057;49.984;8.404;2023-07-31T06:45:08;20.80;99.90
13970;DHT22;7057;49.984;8.404;2023-07-31T06:47:35;20.80;99.90
13970;DHT22;7057;49.984;8.404;2023-07-31T06:50:03;20.90;99.90
13970;DHT22;7057;49.984;8.404;2023-07-31T06:52:31;21.20;99.90
13970;DHT22;7057;49.984;8.404;2023-07-31T06:55:03;21.20;99.90
13970;DHT22;7057;49.984;8.404;2023-07-31T06:57:30;21.30;99.90
13970;DHT22;7057;49.984;8.404;2023-07-31T06:59:58;21.40;99.90
13970;DHT22;7057;49.984;8.404;2023-07-31T07:02:25;21.40;99.90
13970;DHT22;7057;49.984;8.404;2023-07-31T07:04:52;21.50;99.90
13970;DHT22;7057;49.984;8.404;2023-07-31T07:07:20;21.40;99.90
13970;DHT22;7057;49.984;8.404;2023-07-31T07:09:48;21.50;99.90
13970;DHT22;7057;49.984;8.404;2023-07-31T07:12:15;21.50;99.90
13970;DHT22;7057;49.984;8.404;2023-07-31T07:14:42;21.50;99.90
13970;DHT22;7057;49.984;8.404;2023-07-31T07:17:11;21.40;99.90
13970;DHT22;7057;49.984;8.404;2023-07-31T07:19:40;21.40;99.90
13970;DHT22;7057;49.984;8.404;2023-07-31T07:22:07;21.50;99.90
13970;DHT22;7057;49.984;8.404;2023-07-31T07:24:35;21.50;99.90
13970;DHT22;7057;49.984;8.404;2023-07-31T07:27:03;21.60;99.90
13970;DHT22;7057;49.984;8.404;2023-07-31T07:29:31;21.70;99.90
13970;DHT22;7057;49.984;8.404;2023-07-31T07:31:58;21.80;99.90
13970;DHT22;7057;49.984;8.404;2023-07-31T07:34:26;22.00;99.90
13970;DHT22;7057;49.984;8.404;2023-07-31T07:36:54;22.20;99.90
13970;DHT22;7057;49.984;8.404;2023-07-31T07:39:22;22.40;99.90
13970;DHT22;7057;49.984;8.404;2023-07-31T07:41:49;22.40;99.90
13970;DHT22;7057;49.984;8.404;2023-07-31T07:44:17;22.40;99.90
13970;DHT22;7057;49.984;8.404;2023-07-31T07:46:45;22.40;99.90
13970;DHT22;7057;49.984;8.404;2023-07-31T07:49:12;22.30;99.90
13970;DHT22;7057;49.984;8.404;2023-07-31T07:51:39;22.30;99.90
13970;DHT22;7057;49.984;8.404;2023-07-31T07:54:06;22.30;99.90
13970;DHT22;7057;49.984;8.404;2023-07-31T07:56:33;22.40;99.90
13970;DHT22;7057;49.984;8.404;2023-07-31T07:59:02;22.60;99.90
13970;DHT22;7057;49.984;8.404;2023-07-31T08:01:30;22.70;99.90
13970;DHT22;7057;49.984;8.404;2023-07-31T08:03:58;22.60;99.90
13970;DHT22;7057;49.984;8.404;2023-07-31T08:06:25;22.70;99.90
13970;DHT22;7057;49.984;8.404;2023-07-31T08:08:52;22.60;99.90
13970;DHT22;7057;49.984;8.404;2023-07-31T08:11:19;22.30;99.90
13970;DHT22;7057;49.984;8.404;2023-07-31T08:13:47;22.10;99.90
13970;DHT22;7057;49.984;8.404;2023-07-31T08:16:15;22.00;99.90
13970;DHT22;7057;49.984;8.404;2023-07-31T08:18:43;22.00;99.90
13970;DHT22;7057;49.984;8.404;2023-07-31T08:21:10;21.90;99.90
13970;DHT22;7057;49.984;8.404;2023-07-31T08:23:37;22.10;99.90
13970;DHT22;7057;49.984;8.404;2023-07-31T08:26:04;22.10;99.90
13970;DHT22;7057;49.984;8.404;2023-07-31T08:28:32;22.20;99.90
13970;DHT22;7057;49.984;8.404;2023-07-31T08:30:59;22.40;99.90
13970;DHT22;7057;49.984;8.404;2023-07-31T08:33:26;22.50;99.90
13970;DHT22;7057;49.984;8.404;2023-07-31T08:35:54;22.60;99.90
13970;DHT22;7057;49.984;8.404;2023-07-31T08:38:22;22.70;99.90
13970;DHT22;7057;49.984;8.404;2023-07-31T08:40:51;22.80;99.90
13970;DHT22;7057;49.984;8.404;2023-07-31T08:43:20;22.80;99.90
13970;DHT22;7057;49.984;8.404;2023-07-31T08:45:49;23.00;99.90
13970;DHT22;7057;49.984;8.404;2023-07-31T08:48:17;23.00;99.90
13970;DHT22;7057;49.984;8.404;2023-07-31T08:50:45;23.00;99.90
13970;DHT22;7057;49.984;8.404;2023-07-31T08:53:14;22.90;99.90
13970;DHT22;7057;49.984;8.404;2023-07-31T08:55:43;22.90;99.90
13970;DHT22;7057;49.984;8.404;2023-07-31T08:58:13;22.80;99.90
13970;DHT22;7057;49.984;8.404;2023-07-31T09:00:41;22.70;99.90
13970;DHT22;7057;49.984;8.404;2023-07-31T09:03:13;22.60;99.90
13970;DHT22;7057;49.984;8.404;2023-07-31T09:05:42;22.50;99.90
13970;DHT22;7057;49.984;8.404;2023-07-31T09:08:11;22.40;99.90
13970;DHT22;7057;49.984;8.404;2023-07-31T09:10:42;22.30;99.90
13970;DHT22;7057;49.984;8.404;2023-07-31T09:13:09;22.20;99.90
13970;DHT22;7057;49.984;8.404;2023-07-31T09:15:37;22.00;99.90
13970;DHT22;7057;49.984;8.404;2023-07-31T09:18:07;21.90;99.90
13970;DHT22;7057;49.984;8.404;2023-07-31T09:20:35;22.10;99.90
13970;DHT22;7057;49.984;8.404;2023-07-31T09:23:07;22.30;99.90
13970;DHT22;7057;49.984;8.404;2023-07-31T09:25:35;22.60;99.90
13970;DHT22;7057;49.984;8.404;2023-07-31T09:28:11;23.00;99.90
13970;DHT22;7057;49.984;8.404;2023-07-31T09:30:46;23.20;99.90
13970;DHT22;7057;49.984;8.404;2023-07-31T09:33:15;23.40;99.90
13970;DHT22;7057;49.984;8.404;2023-07-31T09:35:42;23.40;99.90
13970;DHT22;7057;49.984;8.404;2023-07-31T09:38:11;23.40;99.90
13970;DHT22;7057;49.984;8.404;2023-07-31T09:40:39;23.20;99.90
13970;DHT22;7057;49.984;8.404;2023-07-31T09:43:10;23.10;99.90
13970;DHT22;7057;49.984;8.404;2023-07-31T09:45:38;23.10;99.90
13970;DHT22;7057;49.984;8.404;2023-07-31T09:48:07;23.20;99.90
13970;DHT22;7057;49.984;8.404;2023-07-31T09:50:37;23.10;99.90
13970;DHT22;7057;49.984;8.404;2023-07-31T09:53:05;23.00;99.90
13970;DHT22;7057;49.984;8.404;2023-07-31T09:55:32;22.90;99.90
13970;DHT22;7057;49.984;8.404;2023-07-31T09:58:04;23.10;99.90
13970;DHT22;7057;49.984;8.404;2023-07-31T10:00:33;23.10;99.90
13970;DHT22;7057;49.984;8.404;2023-07-31T10:03:02;23.20;99.90
13970;DHT22;7057;49.984;8.404;2023-07-31T10:05:36;23.20;99.90
13970;DHT22;7057;49.984;8.404;2023-07-31T10:08:04;23.30;99.90
13970;DHT22;7057;49.984;8.404;2023-07-31T10:10:32;23.40;99.90
13970;DHT22;7057;49.984;8.404;2023-07-31T10:13:00;23.40;99.90
13970;DHT22;7057;49.984;8.404;2023-07-31T10:15:28;23.40;99.90
13970;DHT22;7057;49.984;8.404;2023-07-31T10:17:58;23.30;99.90
13970;DHT22;7057;49.984;8.404;2023-07-31T10:20:26;23.20;99.90
13970;DHT22;7057;49.984;8.404;2023-07-31T10:22:55;23.20;99.90
13970;DHT22;7057;49.984;8.404;2023-07-31T10:25:23;23.30;99.90
13970;DHT22;7057;49.984;8.404;2023-07-31T10:27:52;23.30;99.90
13970;DHT22;7057;49.984;8.404;2023-07-31T10:30:23;23.50;99.90
13970;DHT22;7057;49.984;8.404;2023-07-31T10:32:53;23.70;99.90
13970;DHT22;7057;49.984;8.404;2023-07-31T10:35:21;23.80;99.90
13970;DHT22;7057;49.984;8.404;2023-07-31T10:37:49;23.90;99.90
13970;DHT22;7057;49.984;8.404;2023-07-31T10:40:17;24.20;99.90
13970;DHT22;7057;49.984;8.404;2023-07-31T10:42:47;24.30;99.90
13970;DHT22;7057;49.984;8.404;2023-07-31T10:45:24;24.30;99.90
13970;DHT22;7057;49.984;8.404;2023-07-31T10:47:58;24.30;99.90
13970;DHT22;7057;49.984;8.404;2023-07-31T10:50:28;24.20;99.90
13970;DHT22;7057;49.984;8.404;2023-07-31T10:52:57;24.10;99.90
13970;DHT22;7057;49.984;8.404;2023-07-31T10:55:29;24.00;99.90
13970;DHT22;7057;49.984;8.404;2023-07-31T10:57:57;23.90;99.90
13970;DHT22;7057;49.984;8.404;2023-07-31T11:00:26;24.00;99.90
13970;DHT22;7057;49.984;8.404;2023-07-31T11:03:02;24.10;99.90
13970;DHT22;7057;49.984;8.404;2023-07-31T11:05:49;24.30;99.90
13970;DHT22;7057;49.984;8.404;2023-07-31T11:08:21;24.50;99.90
13970;DHT22;7057;49.984;8.404;2023-07-31T11:10:51;24.50;99.90
13970;DHT22;7057;49.984;8.404;2023-07-31T11:13:20;24.40;99.90
13970;DHT22;7057;49.984;8.404;2023-07-31T11:15:47;24.40;99.90
13970;DHT22;7057;49.984;8.404;2023-07-31T11:18:14;24.50;99.90
13970;DHT22;7057;49.984;8.404;2023-07-31T11:20:44;24.50;99.90
13970;DHT22;7057;49.984;8.404;2023-07-31T11:23:11;24.50;99.90
13970;DHT22;7057;49.984;8.404;2023-07-31T11:25:39;24.60;99.90
13970;DHT22;7057;49.984;8.404;2023-07-31T11:28:08;24.60;99.90
13970;DHT22;7057;49.984;8.404;2023-07-31T11:30:36;24.50;99.90
13970;DHT22;7057;49.984;8.404;2023-07-31T11:33:05;24.20;99.90
13970;DHT22;7057;49.984;8.404;2023-07-31T11:35:33;24.20;99.90
13970;DHT22;7057;49.984;8.404;2023-07-31T11:38:02;24.20;99.90
13970;DHT22;7057;49.984;8.404;2023-07-31T11:40:29;24.30;99.90
13970;DHT22;7057;49.984;8.404;2023-07-31T11:42:57;24.30;99.90
13970;DHT22;7057;49.984;8.404;2023-07-31T11:45:26;24.40;99.90
13970;DHT22;7057;49.984;8.404;2023-07-31T11:47:54;24.50;99.90
13970;DHT22;7057;49.984;8.404;2023-07-31T11:50:22;24.60;99.90
13970;DHT22;7057;49.984;8.404;2023-07-31T11:52:53;24.60;99.90
13970;DHT22;7057;49.984;8.404;2023-07-31T11:55:24;24.60;99.90
13970;DHT22;7057;49.984;8.404;2023-07-31T11:57:51;24.70;99.90
13970;DHT22;7057;49.984;8.404;2023-07-31T12:00:19;24.70;99.90
13970;DHT22;7057;49.984;8.404;2023-07-31T12:02:47;24.70;99.90
13970;DHT22;7057;49.984;8.404;2023-07-31T12:05:14;24.70;99.90
13970;DHT22;7057;49.984;8.404;2023-07-31T12:07:46;24.50;99.90
13970;DHT22;7057;49.984;8.404;2023-07-31T12:10:28;24.40;99.90
13970;DHT22;7057;49.984;8.404;2023-07-31T12:13:00;24.30;99.90
13970;DHT22;7057;49.984;8.404;2023-07-31T12:15:33;24.20;99.90
13970;DHT22;7057;49.984;8.404;2023-07-31T12:18:03;24.10;99.90
13970;DHT22;7057;49.984;8.404;2023-07-31T12:20:32;24.20;99.90
13970;DHT22;7057;49.984;8.404;2023-07-31T12:22:59;24.50;99.90
13970;DHT22;7057;49.984;8.404;2023-07-31T12:25:32;24.20;99.90
13970;DHT22;7057;49.984;8.404;2023-07-31T12:28:04;24.20;99.90
13970;DHT22;7057;49.984;8.404;2023-07-31T12:30:33;24.10;99.90
13970;DHT22;7057;49.984;8.404;2023-07-31T12:33:04;24.10;99.90
13970;DHT22;7057;49.984;8.404;2023-07-31T12:35:36;24.10;99.90
13970;DHT22;7057;49.984;8.404;2023-07-31T12:38:04;24.10;99.90
13970;DHT22;7057;49.984;8.404;2023-07-31T12:40:32;24.10;99.90
13970;DHT22;7057;49.984;8.404;2023-07-31T12:43:01;24.10;99.90
13970;DHT22;7057;49.984;8.404;2023-07-31T12:45:30;24.20;99.90
13970;DHT22;7057;49.984;8.404;2023-07-31T12:47:57;24.30;99.90
13970;DHT22;7057;49.984;8.404;2023-07-31T12:50:25;24.60;99.90
13970;DHT22;7057;49.984;8.404;2023-07-31T12:52:53;24.80;99.90
13970;DHT22;7057;49.984;8.404;2023-07-31T12:55:21;24.80;99.90
13970;DHT22;7057;49.984;8.404;2023-07-31T12:57:50;24.70;99.90
13970;DHT22;7057;49.984;8.404;2023-07-31T13:00:17;24.80;99.90
13970;DHT22;7057;49.984;8.404;2023-07-31T13:02:44;24.90;99.90
13970;DHT22;7057;49.984;8.404;2023-07-31T13:05:11;25.10;99.90
13970;DHT22;7057;49.984;8.404;2023-07-31T13:07:39;25.10;99.90
13970;DHT22;7057;49.984;8.404;2023-07-31T13:10:07;25.00;99.90
13970;DHT22;7057;49.984;8.404;2023-07-31T13:12:34;25.00;99.90
13970;DHT22;7057;49.984;8.404;2023-07-31T13:15:03;25.00;99.90
13970;DHT22;7057;49.984;8.404;2023-07-31T13:17:31;24.90;99.90
13970;DHT22;7057;49.984;8.404;2023-07-31T13:19:58;24.80;99.90
13970;DHT22;7057;49.984;8.404;2023-07-31T13:22:26;24.70;99.90
13970;DHT22;7057;49.984;8.404;2023-07-31T13:24:53;24.50;99.90
13970;DHT22;7057;49.984;8.404;2023-07-31T13:27:20;24.40;99.90
13970;DHT22;7057;49.984;8.404;2023-07-31T13:29:48;24.40;99.90
13970;DHT22;7057;49.984;8.404;2023-07-31T13:32:18;24.40;99.90
13970;DHT22;7057;49.984;8.404;2023-07-31T13:34:46;24.50;99.90
13970;DHT22;7057;49.984;8.404;2023-07-31T13:37:14;24.50;99.90
13970;DHT22;7057;49.984;8.404;2023-07-31T13:39:41;24.50;99.90
13970;DHT22;7057;49.984;8.404;2023-07-31T13:42:09;24.50;99.90
13970;DHT22;7057;49.984;8.404;2023-07-31T13:44:38;24.40;99.90
13970;DHT22;7057;49.984;8.404;2023-07-31T13:47:06;24.20;99.90
13970;DHT22;7057;49.984;8.404;2023-07-31T13:49:35;24.20;99.90
13970;DHT22;7057;49.984;8.404;2023-07-31T13:52:03;24.20;99.90
13970;DHT22;7057;49.984;8.404;2023-07-31T13:54:30;24.30;99.90
13970;DHT22;7057;49.984;8.404;2023-07-31T13:56:58;24.40;99.90
13970;DHT22;7057;49.984;8.404;2023-07-31T13:59:25;24.40;99.90
13970;DHT22;7057;49.984;8.404;2023-07-31T14:01:52;24.40;99.90
13970;DHT22;7057;49.984;8.404;2023-07-31T14:04:19;24.40;99.90
13970;DHT22;7057;49.984;8.404;2023-07-31T14:06:48;24.20;99.90
13970;DHT22;7057;49.984;8.404;2023-07-31T14:09:16;24.00;99.90
13970;DHT22;7057;49.984;8.404;2023-07-31T14:11:43;23.80;99.90
13970;DHT22;7057;49.984;8.404;2023-07-31T14:14:10;23.60;99.90
13970;DHT22;7057;49.984;8.404;2023-07-31T14:16:38;23.60;99.90
13970;DHT22;7057;49.984;8.404;2023-07-31T14:19:05;23.50;99.90
13970;DHT22;7057;49.984;8.404;2023-07-31T14:21:33;23.50;99.90
13970;DHT22;7057;49.984;8.404;2023-07-31T14:24:02;23.50;99.90
13970;DHT22;7057;49.984;8.404;2023-07-31T14:26:29;23.40;99.90
13970;DHT22;7057;49.984;8.404;2023-07-31T14:28:56;23.40;99.90
13970;DHT22;7057;49.984;8.404;2023-07-31T14:31:23;23.40;99.90
13970;DHT22;7057;49.984;8.404;2023-07-31T14:33:51;23.40;99.90
13970;DHT22;7057;49.984;8.404;2023-07-31T14:36:18;23.40;99.90
13970;DHT22;7057;49.984;8.404;2023-07-31T14:38:45;23.50;99.90
13970;DHT22;7057;49.984;8.404;2023-07-31T14:41:13;23.50;99.90
13970;DHT22;7057;49.984;8.404;2023-07-31T14:43:40;23.50;99.90
13970;DHT22;7057;49.984;8.404;2023-07-31T14:46:08;23.40;99.90
13970;DHT22;7057;49.984;8.404;2023-07-31T14:48:35;23.40;99.90
13970;DHT22;7057;49.984;8.404;2023-07-31T14:51:02;23.40;99.90
13970;DHT22;7057;49.984;8.404;2023-07-31T14:53:30;23.40;99.90
13970;DHT22;7057;49.984;8.404;2023-07-31T14:55:57;23.30;99.90
13970;DHT22;7057;49.984;8.404;2023-07-31T14:58:25;23.30;99.90
13970;DHT22;7057;49.984;8.404;2023-07-31T15:00:53;23.30;99.90
13970;DHT22;7057;49.984;8.404;2023-07-31T15:03:20;23.20;99.90
13970;DHT22;7057;49.984;8.404;2023-07-31T15:05:47;23.10;99.90
13970;DHT22;7057;49.984;8.404;2023-07-31T15:08:14;23.10;99.90
13970;DHT22;7057;49.984;8.404;2023-07-31T15:10:41;23.20;99.90
13970;DHT22;7057;49.984;8.404;2023-07-31T15:13:08;23.20;99.90
13970;DHT22;7057;49.984;8.404;2023-07-31T15:15:37;23.30;99.90
13970;DHT22;7057;49.984;8.404;2023-07-31T15:18:04;23.40;99.90
13970;DHT22;7057;49.984;8.404;2023-07-31T15:20:31;23.40;99.90
13970;DHT22;7057;49.984;8.404;2023-07-31T15:23:00;23.30;99.90
13970;DHT22;7057;49.984;8.404;2023-07-31T15:25:27;23.20;99.90
13970;DHT22;7057;49.984;8.404;2023-07-31T15:27:54;23.10;99.90
13970;DHT22;7057;49.984;8.404;2023-07-31T15:30:21;23.00;99.90
13970;DHT22;7057;49.984;8.404;2023-07-31T15:32:50;22.80;99.90
13970;DHT22;7057;49.984;8.404;2023-07-31T15:35:17;22.80;99.90
13970;DHT22;7057;49.984;8.404;2023-07-31T15:37:44;22.80;99.90
13970;DHT22;7057;49.984;8.404;2023-07-31T15:40:11;22.70;99.90
13970;DHT22;7057;49.984;8.404;2023-07-31T15:42:38;22.70;99.90
13970;DHT22;7057;49.984;8.404;2023-07-31T15:45:08;22.80;99.90
13970;DHT22;7057;49.984;8.404;2023-07-31T15:47:36;22.80;99.90
13970;DHT22;7057;49.984;8.404;2023-07-31T15:50:05;22.80;99.90